JST526 YMML-YSSY
Flight info
| Callsign | JST526 |
|---|---|
| Flight time | 1h 8m |
| Altitude | 35000 |
| Route | DOSEL2/34 DOSEL Y59 RIVET |
| Aircraft | A320/M-SDE3FGHIRWY/LB1 |
Departure
| Time | 2026-05-04 09:39 |
|---|---|
| Airport | Melbourne Airport (YMML) |
Arrival
| Time | 2026-05-04 10:47 |
|---|---|
| Airport | Sydney Kingsford Smith International Airport (YSSY) |
| Time | Latitude | Longitude | Altitude | Speed | Heading |
|---|---|---|---|---|---|
| 2026-05-04 08:54 | -37.67519 | 144.84637 | 379 ft | 0 kts | 171° |
| 2026-05-04 08:55 | -37.67527 | 144.84639 | 379 ft | 0 kts | 171° |
| 2026-05-04 09:22 | -37.67505 | 144.84634 | 379 ft | 4 kts | 169° |
| 2026-05-04 09:22 | -37.67478 | 144.84628 | 380 ft | 4 kts | 174° |
| 2026-05-04 09:22 | -37.67454 | 144.84629 | 380 ft | 4 kts | 214° |
| 2026-05-04 09:22 | -37.67447 | 144.84637 | 381 ft | 1 kts | 261° |
| 2026-05-04 09:25 | -37.67447 | 144.84633 | 381 ft | 2 kts | 261° |
| 2026-05-04 09:25 | -37.67451 | 144.84598 | 380 ft | 6 kts | 261° |
| 2026-05-04 09:26 | -37.67459 | 144.84534 | 379 ft | 9 kts | 261° |
| 2026-05-04 09:26 | -37.67470 | 144.84440 | 378 ft | 13 kts | 261° |
| 2026-05-04 09:26 | -37.67488 | 144.84349 | 376 ft | 10 kts | 237° |
| 2026-05-04 09:26 | -37.67567 | 144.84335 | 373 ft | 14 kts | 169° |
| 2026-05-04 09:27 | -37.67675 | 144.84357 | 370 ft | 16 kts | 171° |
| 2026-05-04 09:27 | -37.67769 | 144.84373 | 368 ft | 11 kts | 180° |
| 2026-05-04 09:27 | -37.67833 | 144.84330 | 366 ft | 9 kts | 226° |
| 2026-05-04 09:27 | -37.67858 | 144.84259 | 363 ft | 9 kts | 259° |
| 2026-05-04 09:28 | -37.67861 | 144.84217 | 360 ft | 0 kts | 263° |
| 2026-05-04 09:30 | -37.67861 | 144.84216 | 360 ft | 1 kts | 263° |
| 2026-05-04 09:30 | -37.67865 | 144.84179 | 359 ft | 6 kts | 262° |
| 2026-05-04 09:30 | -37.67873 | 144.84115 | 363 ft | 0 kts | 261° |
| 2026-05-04 09:37 | -37.67876 | 144.84092 | 361 ft | 5 kts | 261° |
| 2026-05-04 09:38 | -37.67888 | 144.84015 | 355 ft | 12 kts | 269° |
| 2026-05-04 09:38 | -37.67846 | 144.83959 | 360 ft | 9 kts | 349° |
| 2026-05-04 09:38 | -37.67682 | 144.83931 | 361 ft | 53 kts | 352° |
| 2026-05-04 09:38 | -37.67117 | 144.83825 | 383 ft | 108 kts | 351° |
| 2026-05-04 09:39 | -37.66232 | 144.83660 | 464 ft | 143 kts | 352° |
| 2026-05-04 09:39 | -37.65247 | 144.83466 | 1003 ft | 144 kts | 350° |
| 2026-05-04 09:39 | -37.64244 | 144.83265 | 1568 ft | 149 kts | 348° |
| 2026-05-04 09:39 | -37.63202 | 144.83067 | 2124 ft | 155 kts | 346° |
| 2026-05-04 09:40 | -37.62074 | 144.82862 | 2444 ft | 173 kts | 345° |
| 2026-05-04 09:40 | -37.60800 | 144.82621 | 2645 ft | 199 kts | 345° |
| 2026-05-04 09:40 | -37.59328 | 144.82397 | 2930 ft | 228 kts | 355° |
| 2026-05-04 09:40 | -37.57704 | 144.82977 | 3415 ft | 258 kts | 19° |
| 2026-05-04 09:41 | -37.56090 | 144.84008 | 4307 ft | 263 kts | 20° |
| 2026-05-04 09:42 | -37.43969 | 144.91725 | 9775 ft | 301 kts | 34° |
| 2026-05-04 09:43 | -37.42490 | 144.93618 | 10501 ft | 311 kts | 49° |
| 2026-05-04 09:43 | -37.41174 | 144.95912 | 10686 ft | 335 kts | 51° |
| 2026-05-04 09:43 | -37.39799 | 144.98375 | 11021 ft | 350 kts | 52° |
| 2026-05-04 09:43 | -37.38396 | 145.00909 | 11623 ft | 356 kts | 52° |
| 2026-05-04 09:44 | -37.36971 | 145.03474 | 12319 ft | 359 kts | 51° |
| 2026-05-04 09:44 | -37.35533 | 145.06054 | 13002 ft | 363 kts | 51° |
| 2026-05-04 09:44 | -37.34072 | 145.08660 | 13692 ft | 366 kts | 51° |
| 2026-05-04 09:46 | -37.23413 | 145.27426 | 17940 ft | 387 kts | 50° |
| 2026-05-04 09:46 | -37.21839 | 145.30183 | 18529 ft | 390 kts | 50° |
| 2026-05-04 09:46 | -37.20254 | 145.32964 | 19073 ft | 393 kts | 50° |
| 2026-05-04 09:47 | -37.18662 | 145.35757 | 19638 ft | 395 kts | 50° |
| 2026-05-04 09:47 | -37.17057 | 145.38567 | 20202 ft | 398 kts | 50° |
| 2026-05-04 09:49 | -37.05497 | 145.58728 | 23767 ft | 417 kts | 50° |
| 2026-05-04 09:49 | -37.03795 | 145.61677 | 24172 ft | 419 kts | 49° |
| 2026-05-04 09:49 | -37.02079 | 145.64645 | 24568 ft | 422 kts | 49° |
| 2026-05-04 09:51 | -36.91579 | 145.82804 | 26777 ft | 437 kts | 46° |
| 2026-05-04 09:51 | -36.89797 | 145.85891 | 27150 ft | 439 kts | 46° |
| 2026-05-04 09:51 | -36.87999 | 145.88989 | 27492 ft | 442 kts | 45° |
| 2026-05-04 09:51 | -36.86189 | 145.92109 | 27825 ft | 445 kts | 45° |
| 2026-05-04 09:52 | -36.84369 | 145.95246 | 28167 ft | 447 kts | 45° |
| 2026-05-04 09:52 | -36.82536 | 145.98393 | 28532 ft | 450 kts | 45° |
| 2026-05-04 09:52 | -36.80687 | 146.01560 | 28852 ft | 453 kts | 44° |
| 2026-05-04 09:52 | -36.78826 | 146.04743 | 29154 ft | 455 kts | 44° |
| 2026-05-04 09:53 | -36.76963 | 146.07930 | 29552 ft | 456 kts | 44° |
| 2026-05-04 09:53 | -36.75090 | 146.11138 | 29893 ft | 458 kts | 44° |
| 2026-05-04 09:53 | -36.73207 | 146.14359 | 30186 ft | 461 kts | 44° |
| 2026-05-04 09:53 | -36.71313 | 146.17592 | 30468 ft | 463 kts | 44° |
| 2026-05-04 09:54 | -36.69418 | 146.20827 | 30843 ft | 462 kts | 44° |
| 2026-05-04 09:54 | -36.67524 | 146.24059 | 31203 ft | 462 kts | 44° |
| 2026-05-04 09:54 | -36.65627 | 146.27297 | 31556 ft | 462 kts | 44° |
| 2026-05-04 09:54 | -36.63732 | 146.30529 | 31907 ft | 463 kts | 44° |
| 2026-05-04 09:55 | -36.62474 | 146.32672 | 32096 ft | 463 kts | 44° |
| 2026-05-04 09:55 | -36.60571 | 146.35907 | 32442 ft | 463 kts | 44° |
| 2026-05-04 09:55 | -36.58665 | 146.39139 | 32792 ft | 464 kts | 44° |
| 2026-05-04 09:55 | -36.56757 | 146.42376 | 33143 ft | 464 kts | 44° |
| 2026-05-04 09:56 | -36.54844 | 146.45617 | 33501 ft | 465 kts | 44° |
| 2026-05-04 09:56 | -36.52930 | 146.48858 | 33858 ft | 465 kts | 44° |
| 2026-05-04 09:56 | -36.51012 | 146.52101 | 34175 ft | 466 kts | 44° |
| 2026-05-04 09:56 | -36.49090 | 146.55343 | 34425 ft | 466 kts | 44° |
| 2026-05-04 09:57 | -36.47165 | 146.58588 | 34667 ft | 468 kts | 45° |
| 2026-05-04 09:57 | -36.45228 | 146.61849 | 34896 ft | 469 kts | 45° |
| 2026-05-04 09:57 | -36.43284 | 146.65117 | 35022 ft | 471 kts | 45° |
| 2026-05-04 09:58 | -36.39383 | 146.71691 | 35051 ft | 474 kts | 45° |
| 2026-05-04 09:58 | -36.35480 | 146.78272 | 35037 ft | 473 kts | 45° |
| 2026-05-04 10:00 | -36.19794 | 147.04462 | 35048 ft | 473 kts | 45° |
| 2026-05-04 10:04 | -35.92366 | 147.49830 | 35098 ft | 469 kts | 44° |
| 2026-05-04 10:04 | -35.88448 | 147.56263 | 35101 ft | 469 kts | 44° |
| 2026-05-04 10:05 | -35.84522 | 147.62686 | 35110 ft | 469 kts | 44° |
| 2026-05-04 10:05 | -35.80600 | 147.69098 | 35104 ft | 468 kts | 44° |
| 2026-05-04 10:06 | -35.76674 | 147.75501 | 35090 ft | 468 kts | 44° |
| 2026-05-04 10:06 | -35.72744 | 147.81899 | 35101 ft | 469 kts | 44° |
| 2026-05-04 10:08 | -35.58962 | 148.04249 | 35101 ft | 469 kts | 43° |
| 2026-05-04 10:08 | -35.55020 | 148.10633 | 35104 ft | 469 kts | 43° |
| 2026-05-04 10:09 | -35.51094 | 148.16962 | 35072 ft | 469 kts | 43° |
| 2026-05-04 10:09 | -35.47135 | 148.23319 | 35076 ft | 469 kts | 43° |
| 2026-05-04 10:10 | -35.43182 | 148.29679 | 35100 ft | 469 kts | 43° |
| 2026-05-04 10:10 | -35.39221 | 148.36047 | 35114 ft | 469 kts | 43° |
| 2026-05-04 10:11 | -35.35254 | 148.42393 | 35092 ft | 469 kts | 42° |
| 2026-05-04 10:11 | -35.31279 | 148.48730 | 35070 ft | 469 kts | 43° |
| 2026-05-04 10:12 | -35.27305 | 148.55069 | 35093 ft | 469 kts | 43° |
| 2026-05-04 10:12 | -35.23327 | 148.61397 | 35103 ft | 469 kts | 43° |
| 2026-05-04 10:13 | -35.19347 | 148.67720 | 35102 ft | 469 kts | 43° |
| 2026-05-04 10:13 | -35.15369 | 148.74049 | 35095 ft | 470 kts | 43° |
| 2026-05-04 10:14 | -35.11382 | 148.80369 | 35096 ft | 469 kts | 43° |
| 2026-05-04 10:16 | -34.95399 | 149.05550 | 35084 ft | 469 kts | 43° |
| 2026-05-04 10:16 | -34.91403 | 149.11826 | 35081 ft | 469 kts | 43° |
| 2026-05-04 10:17 | -34.87404 | 149.18083 | 34675 ft | 465 kts | 43° |
| 2026-05-04 10:19 | -34.73802 | 149.39536 | 31102 ft | 453 kts | 49° |
| 2026-05-04 10:19 | -34.72279 | 149.42912 | 30620 ft | 455 kts | 53° |
| 2026-05-04 10:19 | -34.70810 | 149.46303 | 30131 ft | 452 kts | 53° |
| 2026-05-04 10:19 | -34.69349 | 149.49673 | 29617 ft | 448 kts | 53° |
| 2026-05-04 10:20 | -34.67904 | 149.53004 | 29158 ft | 443 kts | 53° |
| 2026-05-04 10:20 | -34.66475 | 149.56291 | 28710 ft | 438 kts | 53° |
| 2026-05-04 10:20 | -34.65059 | 149.59537 | 28269 ft | 433 kts | 53° |
| 2026-05-04 10:20 | -34.63652 | 149.62753 | 27825 ft | 428 kts | 53° |
| 2026-05-04 10:21 | -34.62261 | 149.65920 | 27423 ft | 424 kts | 53° |
| 2026-05-04 10:21 | -34.60880 | 149.69063 | 26999 ft | 420 kts | 53° |
| 2026-05-04 10:21 | -34.59512 | 149.72178 | 26590 ft | 417 kts | 53° |
| 2026-05-04 10:21 | -34.58152 | 149.75272 | 26180 ft | 414 kts | 53° |
| 2026-05-04 10:22 | -34.55447 | 149.81423 | 25321 ft | 412 kts | 52° |
| 2026-05-04 10:22 | -34.54095 | 149.84491 | 24887 ft | 412 kts | 52° |
| 2026-05-04 10:22 | -34.52745 | 149.87551 | 24437 ft | 412 kts | 52° |
| 2026-05-04 10:23 | -34.51393 | 149.90608 | 23981 ft | 410 kts | 53° |
| 2026-05-04 10:23 | -34.50046 | 149.93656 | 23508 ft | 411 kts | 53° |
| 2026-05-04 10:25 | -34.41201 | 150.13621 | 20344 ft | 369 kts | 53° |
| 2026-05-04 10:25 | -34.39952 | 150.16403 | 19462 ft | 381 kts | 54° |
| 2026-05-04 10:25 | -34.38697 | 150.19216 | 19026 ft | 376 kts | 54° |
| 2026-05-04 10:25 | -34.37474 | 150.21983 | 18520 ft | 369 kts | 55° |
| 2026-05-04 10:26 | -34.36278 | 150.24692 | 18035 ft | 361 kts | 55° |
| 2026-05-04 10:26 | -34.35106 | 150.27337 | 17592 ft | 352 kts | 54° |
| 2026-05-04 10:26 | -34.33961 | 150.29912 | 17147 ft | 344 kts | 54° |
| 2026-05-04 10:26 | -34.32825 | 150.32450 | 16742 ft | 343 kts | 54° |
| 2026-05-04 10:27 | -34.31687 | 150.34983 | 16328 ft | 342 kts | 54° |
| 2026-05-04 10:27 | -34.30553 | 150.37506 | 15906 ft | 341 kts | 54° |
| 2026-05-04 10:27 | -34.29423 | 150.40020 | 15490 ft | 340 kts | 55° |
| 2026-05-04 10:27 | -34.28300 | 150.42530 | 15071 ft | 339 kts | 55° |
| 2026-05-04 10:28 | -34.27183 | 150.45030 | 14662 ft | 338 kts | 55° |
| 2026-05-04 10:28 | -34.26070 | 150.47523 | 14258 ft | 336 kts | 55° |
| 2026-05-04 10:28 | -34.24962 | 150.50008 | 13856 ft | 335 kts | 55° |
| 2026-05-04 10:28 | -34.23858 | 150.52475 | 13420 ft | 333 kts | 55° |
| 2026-05-04 10:29 | -34.22759 | 150.54924 | 13019 ft | 330 kts | 55° |
| 2026-05-04 10:29 | -34.21669 | 150.57347 | 12621 ft | 327 kts | 55° |
| 2026-05-04 10:29 | -34.20587 | 150.59749 | 12235 ft | 324 kts | 55° |
| 2026-05-04 10:29 | -34.19515 | 150.62133 | 11833 ft | 322 kts | 56° |
| 2026-05-04 10:30 | -34.18462 | 150.64489 | 11452 ft | 313 kts | 56° |
| 2026-05-04 10:30 | -34.17717 | 150.66951 | 11085 ft | 318 kts | 77° |
| 2026-05-04 10:30 | -34.17829 | 150.69592 | 10729 ft | 322 kts | 102° |
| 2026-05-04 10:30 | -34.18831 | 150.72002 | 10367 ft | 317 kts | 129° |
| 2026-05-04 10:31 | -34.20507 | 150.73646 | 10009 ft | 307 kts | 155° |
| 2026-05-04 10:31 | -34.22327 | 150.74899 | 9726 ft | 298 kts | 139° |
| 2026-05-04 10:32 | -34.24142 | 150.88504 | 8049 ft | 280 kts | 83° |
| 2026-05-04 10:33 | -34.24097 | 150.90861 | 7729 ft | 280 kts | 83° |
| 2026-05-04 10:33 | -34.24054 | 150.93220 | 7411 ft | 281 kts | 83° |
| 2026-05-04 10:33 | -34.24008 | 150.95587 | 7098 ft | 282 kts | 83° |
| 2026-05-04 10:33 | -34.23961 | 150.97957 | 6785 ft | 283 kts | 83° |
| 2026-05-04 10:34 | -34.23918 | 151.00319 | 6463 ft | 278 kts | 84° |
| 2026-05-04 10:34 | -34.24269 | 151.02582 | 6148 ft | 275 kts | 113° |
| 2026-05-04 10:34 | -34.25368 | 151.04440 | 6003 ft | 269 kts | 130° |
| 2026-05-04 10:34 | -34.26633 | 151.06053 | 6010 ft | 263 kts | 132° |
| 2026-05-04 10:35 | -34.27923 | 151.07627 | 6015 ft | 263 kts | 133° |
| 2026-05-04 10:35 | -34.29211 | 151.09193 | 5962 ft | 261 kts | 133° |
| 2026-05-04 10:35 | -34.30494 | 151.10751 | 5658 ft | 261 kts | 133° |
| 2026-05-04 10:35 | -34.31776 | 151.12303 | 5362 ft | 260 kts | 133° |
| 2026-05-04 10:36 | -34.33041 | 151.13811 | 5235 ft | 251 kts | 133° |
| 2026-05-04 10:36 | -34.34278 | 151.15279 | 5011 ft | 247 kts | 133° |
| 2026-05-04 10:36 | -34.35496 | 151.16734 | 4742 ft | 246 kts | 133° |
| 2026-05-04 10:36 | -34.36705 | 151.18188 | 4432 ft | 245 kts | 133° |
| 2026-05-04 10:37 | -34.37907 | 151.19645 | 4137 ft | 244 kts | 130° |
| 2026-05-04 10:37 | -34.38705 | 151.21382 | 3869 ft | 232 kts | 96° |
| 2026-05-04 10:37 | -34.38620 | 151.23230 | 3580 ft | 214 kts | 60° |
| 2026-05-04 10:37 | -34.37753 | 151.24562 | 3279 ft | 196 kts | 24° |
| 2026-05-04 10:39 | -34.29953 | 151.26634 | 3011 ft | 190 kts | 353° |
| 2026-05-04 10:39 | -34.28642 | 151.26421 | 3011 ft | 190 kts | 348° |
| 2026-05-04 10:39 | -34.27342 | 151.26113 | 3013 ft | 191 kts | 346° |
| 2026-05-04 10:40 | -34.26047 | 151.25782 | 3015 ft | 190 kts | 346° |
| 2026-05-04 10:40 | -34.24773 | 151.25451 | 3018 ft | 191 kts | 346° |
| 2026-05-04 10:40 | -34.23895 | 151.25221 | 3017 ft | 191 kts | 346° |
| 2026-05-04 10:40 | -34.22174 | 151.24772 | 3022 ft | 192 kts | 346° |
| 2026-05-04 10:41 | -34.20872 | 151.24432 | 3024 ft | 191 kts | 346° |
| 2026-05-04 10:41 | -34.19582 | 151.24095 | 3022 ft | 190 kts | 346° |
| 2026-05-04 10:41 | -34.18293 | 151.23758 | 3025 ft | 189 kts | 346° |
| 2026-05-04 10:41 | -34.17009 | 151.23423 | 3025 ft | 189 kts | 346° |
| 2026-05-04 10:42 | -34.16139 | 151.23196 | 3026 ft | 190 kts | 346° |
| 2026-05-04 10:42 | -34.14849 | 151.22860 | 3028 ft | 189 kts | 346° |
| 2026-05-04 10:42 | -34.13594 | 151.22533 | 3022 ft | 180 kts | 347° |
| 2026-05-04 10:42 | -34.12388 | 151.22218 | 3016 ft | 175 kts | 347° |
| 2026-05-04 10:43 | -34.11201 | 151.21909 | 2892 ft | 174 kts | 347° |
| 2026-05-04 10:44 | -34.04190 | 151.20083 | 1598 ft | 136 kts | 349° |
| 2026-05-04 10:45 | -34.03264 | 151.19842 | 1423 ft | 137 kts | 348° |
| 2026-05-04 10:45 | -34.02321 | 151.19597 | 1238 ft | 138 kts | 348° |
| 2026-05-04 10:45 | -34.01363 | 151.19348 | 1048 ft | 140 kts | 347° |
| 2026-05-04 10:45 | -34.00423 | 151.19104 | 862 ft | 139 kts | 349° |
| 2026-05-04 10:46 | -33.99464 | 151.18855 | 671 ft | 139 kts | 350° |
| 2026-05-04 10:46 | -33.98544 | 151.18615 | 497 ft | 137 kts | 351° |
| 2026-05-04 10:46 | -33.97601 | 151.18367 | 305 ft | 138 kts | 351° |
| 2026-05-04 10:46 | -33.96674 | 151.18121 | 121 ft | 138 kts | 350° |
| 2026-05-04 10:47 | -33.95764 | 151.17892 | 29 ft | 121 kts | 347° |
| 2026-05-04 10:47 | -33.95096 | 151.17718 | 27 ft | 74 kts | 348° |
| 2026-05-04 10:47 | -33.94796 | 151.17641 | 29 ft | 24 kts | 351° |
| 2026-05-04 10:47 | -33.94674 | 151.17644 | 29 ft | 16 kts | 6° |
| 2026-05-04 10:49 | -33.94553 | 151.17669 | 30 ft | 4 kts | 13° |
| 2026-05-04 10:49 | -33.94506 | 151.17685 | 30 ft | 10 kts | 17° |
| 2026-05-04 10:50 | -33.94430 | 151.17716 | 30 ft | 13 kts | 18° |
| 2026-05-04 10:51 | -33.93935 | 151.17619 | 29 ft | 4 kts | 348° |
| 2026-05-04 10:52 | -33.93896 | 151.17617 | 29 ft | 8 kts | 12° |
| 2026-05-04 10:52 | -33.93862 | 151.17672 | 29 ft | 10 kts | 66° |
| 2026-05-04 10:52 | -33.93817 | 151.17702 | 30 ft | 9 kts | 354° |
| 2026-05-04 10:54 | -33.93545 | 151.17601 | 30 ft | 1 kts | 349° |
| 2026-05-04 10:54 | -33.93536 | 151.17599 | 30 ft | 0 kts | 349° |
| 2026-05-04 10:56 | -33.93463 | 151.17705 | 30 ft | 0 kts | 100° |